Time;durP1;ratioP1;P1;durP2;ratioP2;P2;SDS_P1;SDS_P2;PMS_P1;PMS_P2;Temp;Humidity;BMP_temperature;BMP_pressure;BME280_temperature;BME280_humidity;BME280_pressure;Samples;Min_cycle;Max_cycle;Signal;HPM_P1;HPM_P2
2023/07/13 00:00:51;;;;;;;4.10;1.63;;;25.30;84.40;;;;;;5005035;28;20536;-60
2023/07/13 00:03:19;;;;;;;2.03;1.83;;;25.30;83.70;;;;;;4996577;28;20479;-60
2023/07/13 00:05:48;;;;;;;2.20;2.00;;;25.30;83.70;;;;;;4996917;28;21062;-63
2023/07/13 00:08:15;;;;;;;3.03;1.90;;;25.30;83.80;;;;;;5005671;28;20462;-55
2023/07/13 00:10:42;;;;;;;2.27;1.60;;;25.30;83.80;;;;;;5008315;28;20558;-66
2023/07/13 00:13:10;;;;;;;2.53;1.83;;;25.30;83.80;;;;;;5002804;28;20478;-61
2023/07/13 00:15:37;;;;;;;1.90;1.80;;;25.30;83.80;;;;;;5001503;28;20456;-58
2023/07/13 00:18:04;;;;;;;2.83;2.00;;;25.30;83.90;;;;;;5007456;28;20455;-56
2023/07/13 00:20:33;;;;;;;2.03;1.93;;;25.30;83.90;;;;;;5002433;28;20467;-60
2023/07/13 00:23:00;;;;;;;2.23;1.70;;;25.30;84.00;;;;;;5000983;28;20594;-64
2023/07/13 00:25:27;;;;;;;1.70;1.60;;;25.30;84.00;;;;;;5003720;28;20460;-65
2023/07/13 00:27:54;;;;;;;2.20;2.00;;;25.30;84.00;;;;;;5003015;28;20491;-65
2023/07/13 00:30:22;;;;;;;1.93;1.73;;;25.30;84.00;;;;;;5005009;28;20470;-65
2023/07/13 00:32:48;;;;;;;2.90;1.57;;;25.30;84.00;;;;;;4996038;28;20475;-64
2023/07/13 00:35:16;;;;;;;3.10;2.00;;;25.30;84.00;;;;;;5008757;28;20818;-65
2023/07/13 00:37:44;;;;;;;2.30;1.63;;;25.30;84.10;;;;;;5001578;28;20962;-61
2023/07/13 00:40:13;;;;;;;1.50;1.40;;;25.30;84.20;;;;;;5000354;28;20455;-56
2023/07/13 00:42:39;;;;;;;1.80;1.70;;;25.30;84.20;;;;;;4997486;28;21010;-57
2023/07/13 00:45:30;;;;;;;1.57;1.47;;;25.30;84.20;;;;;;5000876;28;20486;-58
2023/07/13 00:47:58;;;;;;;2.40;1.60;;;25.20;84.20;;;;;;5002328;28;20463;-63
2023/07/13 00:50:25;;;;;;;1.80;1.70;;;25.30;84.20;;;;;;5001536;28;21924;-62
2023/07/13 00:52:57;;;;;;;1.67;1.57;;;25.30;84.30;;;;;;5005213;28;20463;-65
2023/07/13 00:55:24;;;;;;;1.97;1.77;;;25.20;84.20;;;;;;5006806;28;20451;-64
2023/07/13 00:57:51;;;;;;;2.03;1.60;;;25.30;84.30;;;;;;5012095;28;20482;-65
2023/07/13 01:00:22;;;;;;;2.60;1.53;;;25.20;84.30;;;;;;5004691;28;20808;-62
2023/07/13 01:02:50;;;;;;;3.00;1.60;;;25.30;84.30;;;;;;5000942;28;20965;-62
2023/07/13 01:05:19;;;;;;;1.90;1.40;;;25.20;84.30;;;;;;4998601;28;20495;-64
2023/07/13 01:07:47;;;;;;;1.90;1.60;;;25.30;84.40;;;;;;5002974;28;20467;-64
2023/07/13 01:10:15;;;;;;;1.70;1.57;;;25.30;84.40;;;;;;4999819;28;20467;-63
2023/07/13 01:12:42;;;;;;;1.80;1.53;;;25.30;84.50;;;;;;4997799;28;20485;-61
2023/07/13 01:15:35;;;;;;;1.80;1.70;;;25.30;84.40;;;;;;4996069;28;20474;-64
2023/07/13 01:18:04;;;;;;;4.60;1.50;;;25.20;84.30;;;;;;5000307;28;20456;-62
2023/07/13 01:20:31;;;;;;;1.70;1.60;;;25.20;84.40;;;;;;4998930;28;20467;-59
2023/07/13 01:22:59;;;;;;;1.43;1.30;;;25.20;84.50;;;;;;4997555;28;20467;-59
2023/07/13 01:25:26;;;;;;;1.63;1.53;;;25.20;84.50;;;;;;4999186;28;20495;-60
2023/07/13 01:27:53;;;;;;;1.37;1.27;;;25.20;84.50;;;;;;4994993;28;20476;-64
2023/07/13 01:30:19;;;;;;;1.80;1.70;;;25.20;84.50;;;;;;4994950;28;20478;-62
2023/07/13 01:32:46;;;;;;;3.40;1.50;;;25.20;84.60;;;;;;5003228;28;20473;-58
2023/07/13 01:35:13;;;;;;;1.37;1.27;;;25.20;84.60;;;;;;5002360;28;20482;-62
2023/07/13 01:37:40;;;;;;;2.73;1.77;;;25.20;84.60;;;;;;5002784;28;20464;-61
2023/07/13 01:40:09;;;;;;;1.50;1.40;;;25.20;84.60;;;;;;5000574;28;20470;-62
2023/07/13 01:42:36;;;;;;;1.90;1.80;;;25.20;84.60;;;;;;4996578;28;20676;-62
2023/07/13 01:45:03;;;;;;;1.40;1.30;;;25.20;84.60;;;;;;4993686;28;20495;-60
2023/07/13 01:47:30;;;;;;;1.30;1.20;;;25.20;84.70;;;;;;4999123;28;20552;-59
2023/07/13 01:49:57;;;;;;;1.90;1.70;;;25.20;84.70;;;;;;4995645;28;20455;-56
2023/07/13 01:52:24;;;;;;;1.67;1.57;;;25.20;84.70;;;;;;4998760;28;20460;-64
2023/07/13 01:54:51;;;;;;;2.50;1.60;;;25.20;84.80;;;;;;4999234;28;20839;-64
2023/07/13 01:57:19;;;;;;;2.17;1.50;;;25.20;84.70;;;;;;4998497;28;20909;-62
2023/07/13 01:59:46;;;;;;;2.50;1.97;;;25.20;84.80;;;;;;4989532;28;20455;-63
2023/07/13 02:02:12;;;;;;;2.13;1.93;;;25.20;84.80;;;;;;4993301;28;20995;-63
2023/07/13 02:04:39;;;;;;;1.47;1.20;;;25.20;84.80;;;;;;4995145;28;20502;-61
2023/07/13 02:07:06;;;;;;;1.90;1.77;;;25.20;84.80;;;;;;4994223;28;20474;-56
2023/07/13 02:09:33;;;;;;;1.63;1.50;;;25.20;84.80;;;;;;4993339;28;20459;-61
2023/07/13 02:11:59;;;;;;;1.70;1.20;;;25.10;84.80;;;;;;4993792;28;20459;-65
2023/07/13 02:14:28;;;;;;;1.70;1.50;;;25.20;85.00;;;;;;4997573;28;20471;-65
2023/07/13 02:16:54;;;;;;;2.10;1.60;;;25.20;84.90;;;;;;4992180;28;20803;-61
2023/07/13 02:19:21;;;;;;;1.53;1.43;;;25.10;84.80;;;;;;4998149;28;20475;-59
2023/07/13 02:21:48;;;;;;;1.80;1.70;;;25.10;84.90;;;;;;5000262;28;20455;-64
2023/07/13 02:24:17;;;;;;;1.57;1.40;;;25.10;84.90;;;;;;4998958;28;20491;-64
2023/07/13 02:26:44;;;;;;;2.50;1.60;;;25.20;85.00;;;;;;4997886;28;20543;-61
2023/07/13 02:29:11;;;;;;;2.40;2.20;;;25.20;85.00;;;;;;4998817;28;20454;-61
2023/07/13 02:31:39;;;;;;;2.43;2.23;;;25.20;85.00;;;;;;5000903;28;20878;-64
2023/07/13 02:34:06;;;;;;;1.60;1.50;;;25.10;84.90;;;;;;4998639;28;20463;-64
2023/07/13 02:36:33;;;;;;;1.40;1.30;;;25.10;84.90;;;;;;4997756;28;20483;-63
2023/07/13 02:39:02;;;;;;;1.80;1.40;;;25.10;85.00;;;;;;4996573;28;20463;-63
2023/07/13 02:41:29;;;;;;;1.60;1.50;;;25.10;85.00;;;;;;5000534;28;20460;-58
2023/07/13 02:44:02;;;;;;;1.70;1.47;;;25.10;85.00;;;;;;4994131;28;21039;-60
2023/07/13 02:46:29;;;;;;;1.83;1.73;;;25.10;85.00;;;;;;4993794;28;20468;-59
2023/07/13 02:48:57;;;;;;;1.83;1.73;;;25.10;85.00;;;;;;4996637;28;20469;-58
2023/07/13 02:51:24;;;;;;;2.10;1.50;;;25.10;85.00;;;;;;4997342;28;20459;-61
2023/07/13 02:53:51;;;;;;;1.50;1.40;;;25.10;85.10;;;;;;5004262;28;21076;-60
2023/07/13 02:56:17;;;;;;;2.60;1.53;;;25.10;85.90;;;;;;5008066;28;20462;-57
2023/07/13 02:58:44;;;;;;;1.57;1.47;;;25.10;85.10;;;;;;5003066;28;20471;-61
2023/07/13 03:01:11;;;;;;;1.90;1.63;;;25.10;85.10;;;;;;5005248;28;20475;-65
2023/07/13 03:03:39;;;;;;;2.03;1.70;;;25.10;85.10;;;;;;5002044;28;20481;-65
2023/07/13 03:06:08;;;;;;;1.30;1.20;;;25.10;85.10;;;;;;5006585;28;20463;-63
2023/07/13 03:08:34;;;;;;;1.67;1.40;;;25.10;85.20;;;;;;5006678;28;20464;-64
2023/07/13 03:11:02;;;;;;;2.17;1.70;;;25.10;85.10;;;;;;5004549;28;20490;-63
2023/07/13 03:13:28;;;;;;;1.60;1.50;;;25.10;85.20;;;;;;5004509;28;20468;-64
2023/07/13 03:15:55;;;;;;;2.07;1.70;;;25.10;85.30;;;;;;5006153;28;24931;-59
2023/07/13 03:18:22;;;;;;;2.10;1.80;;;25.10;85.30;;;;;;5003707;28;20463;-63
2023/07/13 03:20:52;;;;;;;1.80;1.70;;;25.10;85.30;;;;;;5004005;28;20458;-58
2023/07/13 03:23:20;;;;;;;2.00;1.90;;;25.10;85.30;;;;;;5004735;28;20456;-58
2023/07/13 03:25:47;;;;;;;1.60;1.50;;;25.10;85.30;;;;;;5005225;28;20502;-65
2023/07/13 03:28:14;;;;;;;2.03;1.83;;;25.10;85.30;;;;;;5003815;28;20466;-64
2023/07/13 03:30:41;;;;;;;1.50;1.40;;;25.10;85.30;;;;;;5001253;28;20465;-64
2023/07/13 03:33:08;;;;;;;2.37;1.70;;;25.10;85.40;;;;;;5012480;28;20463;-64
2023/07/13 03:35:35;;;;;;;1.63;1.53;;;25.10;85.30;;;;;;5001989;28;20576;-64
2023/07/13 03:38:02;;;;;;;1.93;1.60;;;25.10;85.30;;;;;;5002287;28;20852;-63
2023/07/13 03:40:30;;;;;;;1.93;1.77;;;25.10;86.10;;;;;;4999098;28;20490;-59
2023/07/13 03:42:57;;;;;;;1.50;1.40;;;25.10;85.40;;;;;;5000864;28;20471;-63
2023/07/13 03:45:23;;;;;;;1.83;1.67;;;25.00;85.30;;;;;;5002585;28;20486;-60
2023/07/13 03:47:50;;;;;;;1.70;1.60;;;25.10;85.40;;;;;;4996905;28;20459;-61
2023/07/13 03:50:17;;;;;;;1.70;1.60;;;25.10;85.40;;;;;;4999383;28;20462;-56
2023/07/13 03:52:43;;;;;;;2.13;1.73;;;25.00;85.40;;;;;;5006463;28;20458;-58
2023/07/13 03:55:11;;;;;;;1.90;1.80;;;25.00;85.30;;;;;;5004918;28;20461;-61
2023/07/13 03:57:39;;;;;;;1.73;1.63;;;25.10;85.40;;;;;;5001950;28;21076;-59
2023/07/13 04:00:07;;;;;;;1.33;1.23;;;25.10;85.50;;;;;;4996695;28;20471;-59
2023/07/13 04:02:34;;;;;;;1.97;1.77;;;25.00;85.40;;;;;;4999681;28;21401;-59
2023/07/13 04:05:01;;;;;;;2.03;1.80;;;25.00;85.40;;;;;;5004432;28;20506;-64
2023/07/13 04:07:28;;;;;;;2.27;1.40;;;25.10;85.50;;;;;;5000471;28;20901;-60
2023/07/13 04:09:54;;;;;;;1.73;1.63;;;25.00;85.40;;;;;;4997161;28;20463;-62
2023/07/13 04:12:21;;;;;;;2.13;1.97;;;25.10;85.50;;;;;;4998275;28;20463;-61
2023/07/13 04:14:49;;;;;;;1.63;1.40;;;25.00;85.40;;;;;;4995427;28;20466;-56
2023/07/13 04:17:16;;;;;;;2.13;1.50;;;25.00;85.40;;;;;;4994115;28;20465;-61
2023/07/13 04:19:43;;;;;;;1.57;1.47;;;25.00;85.50;;;;;;4995990;28;20935;-58
2023/07/13 04:22:09;;;;;;;1.43;1.33;;;25.00;85.50;;;;;;5000287;28;20490;-61
2023/07/13 04:24:37;;;;;;;1.73;1.50;;;25.00;85.50;;;;;;5001145;28;20483;-61
2023/07/13 04:27:04;;;;;;;2.20;1.47;;;25.00;85.50;;;;;;5002629;28;20518;-60
2023/07/13 04:29:30;;;;;;;1.67;1.50;;;25.00;85.50;;;;;;4998494;28;20883;-61
2023/07/13 04:31:58;;;;;;;1.50;1.40;;;25.00;85.60;;;;;;4996075;28;20463;-59
2023/07/13 04:34:24;;;;;;;1.57;1.47;;;25.00;85.60;;;;;;4999619;28;20218;-62
2023/07/13 04:36:52;;;;;;;1.50;1.27;;;25.00;85.60;;;;;;5006676;28;20825;-63
2023/07/13 04:39:18;;;;;;;1.63;1.53;;;25.00;85.60;;;;;;5008085;28;20546;-64
2023/07/13 04:41:45;;;;;;;1.97;1.83;;;25.00;85.60;;;;;;5005795;28;20467;-63
2023/07/13 04:44:12;;;;;;;2.43;1.63;;;25.00;85.60;;;;;;5002187;28;20463;-59
2023/07/13 04:46:38;;;;;;;2.03;1.83;;;25.00;85.60;;;;;;5002879;28;20470;-62
2023/07/13 04:49:07;;;;;;;1.83;1.70;;;25.00;85.60;;;;;;5005377;28;20987;-62
2023/07/13 04:51:33;;;;;;;1.60;1.43;;;25.00;85.60;;;;;;5010859;28;20643;-63
2023/07/13 04:54:00;;;;;;;1.67;1.57;;;25.00;85.60;;;;;;5006409;28;20466;-59
2023/07/13 04:56:27;;;;;;;1.50;1.33;;;25.00;85.60;;;;;;5007967;28;21125;-62
2023/07/13 04:58:53;;;;;;;1.50;1.40;;;25.00;85.70;;;;;;5008427;28;20482;-60
2023/07/13 05:01:20;;;;;;;1.67;1.33;;;25.00;85.70;;;;;;5007368;28;20467;-58
2023/07/13 05:03:47;;;;;;;2.33;2.13;;;25.00;85.70;;;;;;5012701;28;20490;-63
2023/07/13 05:06:15;;;;;;;2.40;1.70;;;25.00;85.70;;;;;;5009014;28;20482;-64
2023/07/13 05:08:41;;;;;;;1.37;1.27;;;25.00;85.70;;;;;;5003763;28;21152;-62
2023/07/13 05:11:08;;;;;;;2.03;1.87;;;25.00;85.70;;;;;;5001328;28;20475;-63
2023/07/13 05:13:35;;;;;;;3.10;1.47;;;25.00;85.60;;;;;;5004190;28;20458;-63
2023/07/13 05:16:03;;;;;;;1.87;1.53;;;25.00;85.60;;;;;;5004131;28;20466;-61
2023/07/13 05:18:31;;;;;;;1.93;1.50;;;24.90;85.30;;;;;;5002024;28;20480;-58
2023/07/13 05:21:02;;;;;;;1.60;1.50;;;25.00;85.40;;;;;;5002613;28;20460;-61
2023/07/13 05:23:30;;;;;;;1.83;1.30;;;25.00;85.30;;;;;;5004376;28;20471;-59
2023/07/13 05:25:57;;;;;;;1.53;1.40;;;25.00;85.30;;;;;;5000428;28;20478;-59
2023/07/13 05:28:24;;;;;;;1.70;1.43;;;24.90;85.20;;;;;;4998921;28;20462;-63
2023/07/13 05:30:51;;;;;;;2.20;1.93;;;24.90;85.10;;;;;;5000568;28;20484;-59
2023/07/13 05:33:18;;;;;;;1.50;1.40;;;25.00;85.20;;;;;;5004563;28;20462;-64
2023/07/13 05:35:45;;;;;;;2.10;1.77;;;25.00;85.20;;;;;;5000323;28;20927;-64
2023/07/13 05:38:12;;;;;;;3.50;1.60;;;24.90;85.00;;;;;;5000162;28;20467;-63
2023/07/13 05:40:40;;;;;;;1.90;1.33;;;25.00;85.10;;;;;;5000370;28;20463;-57
2023/07/13 05:43:06;;;;;;;1.90;1.80;;;24.90;85.10;;;;;;4997258;28;20463;-60
2023/07/13 05:45:33;;;;;;;1.63;1.53;;;24.90;85.00;;;;;;5000615;28;20478;-60
2023/07/13 05:48:00;;;;;;;1.70;1.60;;;24.90;85.00;;;;;;4998237;28;21816;-63
2023/07/13 05:50:27;;;;;;;1.93;1.40;;;24.90;85.00;;;;;;5007454;28;20686;-61
2023/07/13 05:52:54;;;;;;;1.60;1.50;;;24.90;85.00;;;;;;5006570;28;20466;-62
2023/07/13 05:55:21;;;;;;;12.63;2.63;;;24.90;85.10;;;;;;5010368;28;20467;-61
2023/07/13 05:57:49;;;;;;;2.07;1.53;;;24.90;85.10;;;;;;5011758;28;20525;-60
2023/07/13 06:00:16;;;;;;;3.10;2.10;;;24.90;85.20;;;;;;5000309;28;20840;-61
2023/07/13 06:02:43;;;;;;;2.30;1.60;;;24.90;85.20;;;;;;5005133;28;21075;-64
2023/07/13 06:05:10;;;;;;;1.70;1.57;;;24.90;85.20;;;;;;5010334;28;20490;-61
2023/07/13 06:07:37;;;;;;;2.13;1.67;;;24.90;85.30;;;;;;5006187;28;20472;-60
2023/07/13 06:10:04;;;;;;;1.50;1.40;;;24.90;85.30;;;;;;5006810;28;20467;-62
2023/07/13 06:12:30;;;;;;;2.43;1.30;;;24.90;85.30;;;;;;5012728;28;20470;-62
2023/07/13 06:14:58;;;;;;;3.83;1.83;;;24.90;85.40;;;;;;5007263;28;20486;-63
2023/07/13 06:17:25;;;;;;;2.93;1.50;;;24.90;85.50;;;;;;5005457;28;20940;-63
2023/07/13 06:19:52;;;;;;;1.93;1.40;;;24.90;85.60;;;;;;5004271;28;20456;-59
2023/07/13 06:22:18;;;;;;;1.70;1.37;;;25.00;85.70;;;;;;5008017;28;20463;-58
2023/07/13 06:24:45;;;;;;;3.50;1.43;;;24.90;85.60;;;;;;5012254;28;20438;-58
2023/07/13 06:27:12;;;;;;;5.20;2.00;;;24.90;85.60;;;;;;5002691;28;20466;-58
2023/07/13 06:29:39;;;;;;;2.30;1.40;;;24.90;85.70;;;;;;5008698;28;21482;-64
2023/07/13 06:32:09;;;;;;;1.87;1.40;;;24.90;85.70;;;;;;5005343;28;21768;-62
2023/07/13 06:34:35;;;;;;;4.73;1.87;;;25.00;85.80;;;;;;5008609;28;21090;-64
2023/07/13 06:37:02;;;;;;;2.30;1.50;;;25.00;85.90;;;;;;5002817;28;20464;-58
2023/07/13 06:39:32;;;;;;;3.07;1.93;;;25.00;85.90;;;;;;4999489;28;20470;-60
2023/07/13 06:41:58;;;;;;;2.17;1.50;;;25.00;86.40;;;;;;4999407;28;20459;-60
2023/07/13 06:44:26;;;;;;;2.90;1.93;;;25.00;86.00;;;;;;4992079;28;20503;-59
2023/07/13 06:46:53;;;;;;;3.53;1.70;;;25.00;84.60;;;;;;4992386;28;21045;-61
2023/07/13 06:49:21;;;;;;;5.43;2.30;;;24.90;83.50;;;;;;4997977;28;20482;-58
2023/07/13 06:51:47;;;;;;;4.07;2.10;;;24.90;82.80;;;;;;5004896;28;20455;-59
2023/07/13 06:54:14;;;;;;;3.17;1.50;;;24.90;82.40;;;;;;5002745;28;20479;-62
2023/07/13 06:56:41;;;;;;;5.13;2.50;;;24.80;82.10;;;;;;5003133;28;21183;-54
2023/07/13 06:59:08;;;;;;;4.43;1.83;;;24.80;82.00;;;;;;5004828;28;20464;-62
2023/07/13 07:01:34;;;;;;;5.70;2.27;;;24.80;82.30;;;;;;5000929;28;20967;-64
2023/07/13 07:04:01;;;;;;;5.97;2.13;;;24.80;82.50;;;;;;5002766;28;20930;-58
2023/07/13 07:06:29;;;;;;;4.33;2.13;;;24.80;82.70;;;;;;5009820;28;20894;-63
2023/07/13 07:08:56;;;;;;;9.00;1.80;;;24.80;82.90;;;;;;5010773;28;20489;-63
2023/07/13 07:11:24;;;;;;;7.77;2.23;;;24.90;83.20;;;;;;5005632;28;21057;-61
2023/07/13 07:13:52;;;;;;;7.60;2.10;;;24.90;83.40;;;;;;5004505;28;20459;-61
2023/07/13 07:16:20;;;;;;;2.67;1.70;;;24.90;83.60;;;;;;5002499;28;20472;-62
2023/07/13 07:18:47;;;;;;;4.50;1.90;;;24.80;83.70;;;;;;5007508;28;20459;-58
2023/07/13 07:21:14;;;;;;;5.13;1.83;;;24.90;84.00;;;;;;5008506;28;20462;-63
2023/07/13 07:23:43;;;;;;;7.70;2.20;;;24.80;83.90;;;;;;5014803;28;21975;-61
2023/07/13 07:26:11;;;;;;;3.63;2.13;;;24.80;83.90;;;;;;5013977;28;20483;-62
2023/07/13 07:28:38;;;;;;;4.93;2.10;;;24.80;84.00;;;;;;5012178;28;20954;-59
2023/07/13 07:31:05;;;;;;;4.43;1.50;;;24.80;84.00;;;;;;5011822;28;20450;-59
2023/07/13 07:33:34;;;;;;;3.63;1.63;;;24.90;84.10;;;;;;5013974;28;20451;-59
2023/07/13 07:36:01;;;;;;;5.97;2.30;;;24.80;84.00;;;;;;5006500;28;21347;-63
2023/07/13 07:38:27;;;;;;;3.63;2.00;;;24.80;84.10;;;;;;5015407;28;20455;-65
2023/07/13 07:40:56;;;;;;;6.37;2.50;;;24.80;84.10;;;;;;5012163;28;20464;-63
2023/07/13 07:43:22;;;;;;;3.63;1.93;;;24.80;84.10;;;;;;5012106;28;20462;-58
2023/07/13 07:45:49;;;;;;;3.80;1.77;;;24.90;84.20;;;;;;5008144;28;20487;-63
2023/07/13 07:48:16;;;;;;;5.10;1.97;;;24.80;84.20;;;;;;5004034;28;20696;-61
2023/07/13 07:50:42;;;;;;;3.47;1.83;;;24.80;84.20;;;;;;5005703;28;20463;-62
2023/07/13 07:53:10;;;;;;;3.93;2.13;;;24.80;84.20;;;;;;5008208;28;20994;-64
2023/07/13 07:55:37;;;;;;;3.23;2.07;;;24.90;84.30;;;;;;5010732;28;20463;-62
2023/07/13 07:58:06;;;;;;;4.90;1.90;;;24.80;84.30;;;;;;5009765;28;20467;-59
2023/07/13 08:00:33;;;;;;;2.50;1.60;;;24.90;84.40;;;;;;5009986;28;20819;-61
2023/07/13 08:03:00;;;;;;;6.10;3.33;;;24.80;84.30;;;;;;5011324;28;20859;-60
2023/07/13 08:05:27;;;;;;;3.10;2.03;;;24.80;84.30;;;;;;5007689;28;20459;-61
2023/07/13 08:07:53;;;;;;;4.67;2.27;;;24.80;84.40;;;;;;5007543;28;20462;-59
2023/07/13 08:10:20;;;;;;;5.37;2.07;;;24.80;84.40;;;;;;5009343;28;20839;-59
2023/07/13 08:12:46;;;;;;;4.40;2.20;;;24.90;84.80;;;;;;5007484;28;20466;-56
2023/07/13 08:15:17;;;;;;;2.57;1.87;;;24.80;84.70;;;;;;5012638;28;20531;-60
2023/07/13 08:17:43;;;;;;;3.23;2.00;;;24.90;84.90;;;;;;5014091;28;20204;-67
2023/07/13 08:20:11;;;;;;;3.10;1.87;;;24.90;84.90;;;;;;5005404;28;20890;-62
2023/07/13 08:22:37;;;;;;;2.30;1.67;;;24.80;84.80;;;;;;5012683;28;20940;-62
2023/07/13 08:25:05;;;;;;;2.83;1.50;;;24.80;84.80;;;;;;5013880;28;20455;-64
2023/07/13 08:27:31;;;;;;;3.97;2.00;;;24.90;85.20;;;;;;5010848;28;20483;-63
2023/07/13 08:29:58;;;;;;;6.73;2.17;;;24.90;85.00;;;;;;5009756;28;20840;-63
2023/07/13 08:32:26;;;;;;;2.90;1.63;;;24.90;85.10;;;;;;5005779;28;20464;-62
2023/07/13 08:34:53;;;;;;;3.97;2.10;;;24.90;85.00;;;;;;5000747;28;20482;-63
2023/07/13 08:37:20;;;;;;;6.83;2.00;;;24.90;85.10;;;;;;4999384;28;20463;-63
2023/07/13 08:39:47;;;;;;;4.30;2.73;;;25.00;85.40;;;;;;4997313;28;20673;-59
2023/07/13 08:42:33;;;;;;;4.47;1.80;;;25.00;85.40;;;;;;5004817;28;20531;-66
2023/07/13 08:45:10;;;;;;;5.83;1.73;;;25.00;85.40;;;;;;5005373;28;20505;-60
2023/07/13 08:47:44;;;;;;;6.60;2.20;;;25.00;85.00;;;;;;5007776;28;20486;-57
2023/07/13 08:50:15;;;;;;;3.37;1.90;;;25.00;85.10;;;;;;5005181;28;21199;-61
2023/07/13 08:52:44;;;;;;;4.37;2.17;;;25.00;84.30;;;;;;5002654;28;20454;-58
2023/07/13 08:55:15;;;;;;;4.10;1.70;;;25.10;84.40;;;;;;5011055;28;20464;-57
2023/07/13 08:57:45;;;;;;;3.20;1.83;;;25.10;84.40;;;;;;5011859;28;20474;-58
2023/07/13 09:00:14;;;;;;;2.70;2.13;;;25.10;84.40;;;;;;5002271;28;20460;-59
2023/07/13 09:02:47;;;;;;;4.23;2.00;;;25.10;84.40;;;;;;5002470;28;20471;-59
2023/07/13 09:05:16;;;;;;;2.23;1.50;;;25.20;84.40;;;;;;5002011;28;20460;-59
2023/07/13 09:08:05;;;;;;;5.20;2.40;;;25.20;84.40;;;;;;4998790;28;20525;-60
2023/07/13 09:10:41;;;;;;;2.13;1.40;;;25.20;84.30;;;;;;5004851;28;20500;-59
2023/07/13 09:13:21;;;;;;;4.80;2.10;;;25.20;84.30;;;;;;5015310;28;21090;-61
2023/07/13 09:15:50;;;;;;;4.20;2.30;;;25.30;84.30;;;;;;5005534;28;20602;-62
2023/07/13 09:18:24;;;;;;;2.87;2.20;;;25.20;84.20;;;;;;5006710;28;20668;-58
2023/07/13 09:20:56;;;;;;;4.10;2.20;;;25.30;84.30;;;;;;5009179;28;20463;-58
2023/07/13 09:23:24;;;;;;;3.17;2.50;;;25.30;84.30;;;;;;5004859;28;20966;-60
2023/07/13 09:25:55;;;;;;;2.97;2.00;;;25.30;84.30;;;;;;5001051;28;20464;-60
2023/07/13 09:28:26;;;;;;;4.70;2.13;;;25.30;84.30;;;;;;5009216;28;20499;-56
2023/07/13 09:30:59;;;;;;;3.27;2.20;;;25.30;84.30;;;;;;5000244;28;20482;-58
2023/07/13 09:33:29;;;;;;;5.40;2.07;;;25.30;84.20;;;;;;5005571;28;20986;-61
2023/07/13 09:35:57;;;;;;;2.50;2.00;;;25.30;84.20;;;;;;5001798;28;20579;-60
2023/07/13 09:38:26;;;;;;;5.80;2.13;;;25.30;84.20;;;;;;5007887;28;20495;-60
2023/07/13 09:41:15;;;;;;;2.63;2.17;;;25.30;84.20;;;;;;5007239;28;20450;-58
2023/07/13 09:44:01;;;;;;;3.43;2.17;;;25.30;84.10;;;;;;5006369;28;20467;-54
2023/07/13 09:46:28;;;;;;;4.53;1.90;;;25.30;84.10;;;;;;5007015;28;20483;-62
2023/07/13 09:48:57;;;;;;;2.90;2.07;;;25.30;84.20;;;;;;5001739;28;20459;-59
2023/07/13 09:51:23;;;;;;;2.73;2.33;;;25.30;84.20;;;;;;5011024;28;21031;-61
2023/07/13 09:53:50;;;;;;;3.03;1.53;;;25.30;84.20;;;;;;5004165;28;20544;-58
2023/07/13 09:56:21;;;;;;;3.93;2.00;;;25.30;84.20;;;;;;5009644;28;20518;-54
2023/07/13 09:58:48;;;;;;;3.60;2.13;;;25.30;84.00;;;;;;5005081;28;20521;-60
2023/07/13 10:01:15;;;;;;;2.63;2.07;;;25.30;83.90;;;;;;5006018;28;20462;-58
2023/07/13 10:03:53;;;;;;;2.83;1.90;;;25.30;83.90;;;;;;5011435;28;20466;-50
2023/07/13 10:06:23;;;;;;;3.97;1.80;;;25.30;83.70;;;;;;5007695;28;20483;-53
2023/07/13 10:08:51;;;;;;;4.20;1.87;;;25.30;83.40;;;;;;5006893;28;20548;-56
2023/07/13 10:11:22;;;;;;;3.80;2.07;;;25.30;82.70;;;;;;5002050;28;20543;-59
2023/07/13 10:13:52;;;;;;;3.50;2.20;;;25.30;82.10;;;;;;5005231;28;20473;-55
2023/07/13 10:16:19;;;;;;;2.27;1.70;;;25.30;82.10;;;;;;5008164;28;20475;-60
2023/07/13 10:18:49;;;;;;;3.00;1.60;;;25.30;82.00;;;;;;5010457;28;20486;-60
2023/07/13 10:21:19;;;;;;;3.97;2.10;;;25.30;82.30;;;;;;5010201;28;20470;-55
2023/07/13 10:23:51;;;;;;;2.60;2.10;;;25.20;81.90;;;;;;5009614;28;20536;-59
2023/07/13 10:26:24;;;;;;;3.50;1.50;;;25.30;81.70;;;;;;5008046;28;21392;-57
2023/07/13 10:28:56;;;;;;;5.77;2.10;;;25.20;81.60;;;;;;5009524;28;21080;-59
2023/07/13 10:31:23;;;;;;;4.07;1.90;;;25.20;81.40;;;;;;5008940;28;20551;-55
2023/07/13 10:33:50;;;;;;;6.13;1.97;;;25.30;81.50;;;;;;5005550;28;20468;-64
2023/07/13 10:36:27;;;;;;;3.80;3.00;;;25.30;81.40;;;;;;5007291;28;20883;-59
2023/07/13 10:38:58;;;;;;;5.90;1.90;;;25.30;81.80;;;;;;5009739;28;20468;-54
2023/07/13 10:41:27;;;;;;;5.03;1.93;;;25.30;81.40;;;;;;5012778;28;20470;-61
2023/07/13 10:43:57;;;;;;;3.70;1.60;;;25.30;80.90;;;;;;5007286;28;20478;-57
2023/07/13 10:46:27;;;;;;;4.70;2.00;;;25.40;81.30;;;;;;5005818;28;20483;-53
2023/07/13 10:48:57;;;;;;;4.63;2.20;;;25.40;81.20;;;;;;5007629;28;20967;-54
2023/07/13 10:51:24;;;;;;;2.90;1.80;;;25.40;80.90;;;;;;5008752;28;20467;-55
2023/07/13 10:54:16;;;;;;;5.23;2.50;;;25.40;80.80;;;;;;5006319;28;20472;-54
2023/07/13 10:56:44;;;;;;;2.90;1.80;;;25.40;81.40;;;;;;5004173;28;20467;-53
2023/07/13 10:59:14;;;;;;;3.50;2.10;;;25.50;80.70;;;;;;5003081;28;20469;-55
2023/07/13 11:01:50;;;;;;;4.63;2.23;;;25.50;80.50;;;;;;5006526;28;20525;-52
2023/07/13 11:04:21;;;;;;;6.20;2.40;;;25.50;80.70;;;;;;5005103;28;21124;-50
2023/07/13 11:06:50;;;;;;;2.13;1.93;;;25.50;81.30;;;;;;4998453;28;20876;-56
2023/07/13 11:09:37;;;;;;;3.30;1.90;;;25.50;81.80;;;;;;4999172;28;20469;-53
2023/07/13 11:12:13;;;;;;;5.27;2.10;;;25.60;82.40;;;;;;5000210;28;20460;-57
2023/07/13 11:15:06;;;;;;;7.47;2.70;;;25.50;81.70;;;;;;5004576;28;20471;-57
2023/07/13 11:17:49;;;;;;;4.80;2.20;;;25.60;82.10;;;;;;5001862;28;20473;-60
2023/07/13 11:20:34;;;;;;;3.10;2.13;;;25.60;82.90;;;;;;5005486;28;20583;-57
2023/07/13 11:23:30;;;;;;;5.10;3.30;;;25.60;82.70;;;;;;5001571;28;20469;-51
2023/07/13 11:25:56;;;;;;;6.53;2.47;;;25.50;81.90;;;;;;4990505;28;21404;-54
2023/07/13 11:28:26;;;;;;;4.20;2.13;;;25.60;81.70;;;;;;5008333;28;20492;-56
2023/07/13 11:31:12;;;;;;;4.73;2.23;;;25.60;81.50;;;;;;5007853;28;20469;-56
2023/07/13 11:33:59;;;;;;;6.83;2.67;;;25.60;80.70;;;;;;5004394;28;20464;-59
2023/07/13 11:36:37;;;;;;;3.00;2.23;;;25.60;80.40;;;;;;5004398;28;20563;-55
2023/07/13 11:39:13;;;;;;;5.63;2.70;;;25.60;80.90;;;;;;5011652;28;20542;-55
2023/07/13 11:41:46;;;;;;;4.10;2.70;;;25.70;80.90;;;;;;5009650;28;20542;-52
2023/07/13 11:44:15;;;;;;;4.07;2.50;;;25.70;80.70;;;;;;5010455;28;20979;-68
2023/07/13 11:46:47;;;;;;;6.23;2.33;;;25.60;80.30;;;;;;5006365;28;20868;-67
2023/07/13 11:49:17;;;;;;;3.60;2.50;;;25.60;79.90;;;;;;5005495;28;20560;-61
2023/07/13 11:51:46;;;;;;;2.47;1.90;;;25.60;79.80;;;;;;5007741;28;20548;-59
2023/07/13 11:54:24;;;;;;;6.03;2.60;;;25.60;79.50;;;;;;5007428;28;20471;-54
2023/07/13 11:56:51;;;;;;;3.80;2.47;;;25.60;78.80;;;;;;5008307;28;21053;-50
2023/07/13 11:59:18;;;;;;;4.67;2.20;;;25.60;78.90;;;;;;5010119;28;20472;-58
2023/07/13 12:01:52;;;;;;;5.73;3.00;;;25.60;78.50;;;;;;5008537;28;20959;-56
2023/07/13 12:04:24;;;;;;;4.17;2.60;;;25.60;78.20;;;;;;5009495;28;20475;-56
2023/07/13 12:06:58;;;;;;;3.90;1.80;;;25.70;78.40;;;;;;5004547;28;20492;-61
2023/07/13 12:09:28;;;;;;;2.97;1.90;;;25.70;78.20;;;;;;5006065;28;21152;-63
2023/07/13 12:11:55;;;;;;;4.23;2.33;;;25.70;78.30;;;;;;5007945;28;21103;-59
2023/07/13 12:14:24;;;;;;;3.73;2.90;;;25.70;77.90;;;;;;5008645;28;20464;-57
2023/07/13 12:16:51;;;;;;;4.27;2.30;;;25.70;77.50;;;;;;5007880;28;20809;-60
2023/07/13 12:19:21;;;;;;;4.70;2.40;;;25.70;77.30;;;;;;5008668;28;20480;-62
2023/07/13 12:21:49;;;;;;;4.00;2.50;;;25.70;77.90;;;;;;5008747;28;20936;-61
2023/07/13 12:24:16;;;;;;;4.53;2.23;;;25.70;77.00;;;;;;5007993;28;20473;-60
2023/07/13 12:26:43;;;;;;;3.50;1.70;;;25.70;76.50;;;;;;5008865;28;20453;-58
2023/07/13 12:29:18;;;;;;;4.67;2.20;;;25.70;76.50;;;;;;5007961;28;20883;-54
2023/07/13 12:31:46;;;;;;;11.10;2.47;;;25.70;76.90;;;;;;5008416;28;20795;-59
2023/07/13 12:34:15;;;;;;;6.20;1.90;;;25.70;76.80;;;;;;5008510;28;20457;-62
2023/07/13 12:36:51;;;;;;;3.50;1.97;;;25.80;77.00;;;;;;5003355;28;20480;-62
2023/07/13 12:39:23;;;;;;;4.67;2.40;;;25.80;76.90;;;;;;5007739;28;20914;-63
2023/07/13 12:41:51;;;;;;;5.70;1.97;;;25.80;77.20;;;;;;5011424;28;20454;-65
2023/07/13 12:44:19;;;;;;;3.23;2.10;;;25.80;77.40;;;;;;5006336;28;20822;-60
2023/07/13 12:46:59;;;;;;;2.67;2.10;;;25.80;77.20;;;;;;5004734;28;20465;-63
2023/07/13 12:49:34;;;;;;;6.67;3.07;;;25.90;75.80;;;;;;5009822;28;20469;-62
2023/07/13 12:52:05;;;;;;;5.77;2.53;;;25.80;74.80;;;;;;5007445;28;20458;-59
2023/07/13 12:54:32;;;;;;;6.70;2.63;;;25.80;73.80;;;;;;5011202;28;20461;-63
2023/07/13 12:57:02;;;;;;;7.13;2.10;;;25.80;73.30;;;;;;5008038;28;20465;-60